createdAt,value
2022-07-31T00:00:15.328Z,18.27
2022-07-31T00:02:42.189Z,18.23
2022-07-31T00:05:09.149Z,18.27
2022-07-31T00:07:35.811Z,18.34
2022-07-31T00:10:02.869Z,18.41
2022-07-31T00:12:29.596Z,18.56
2022-07-31T00:14:56.296Z,18.57
2022-07-31T00:17:23.056Z,18.56
2022-07-31T00:19:49.700Z,18.44
2022-07-31T00:22:16.310Z,18.56
2022-07-31T00:24:42.989Z,18.55
2022-07-31T00:27:10.887Z,18.45
2022-07-31T00:29:38.639Z,18.35
2022-07-31T00:32:06.067Z,18.36
2022-07-31T00:34:32.900Z,18.38
2022-07-31T00:36:59.677Z,18.51
2022-07-31T00:39:26.679Z,18.49
2022-07-31T00:41:55.045Z,18.67
2022-07-31T00:44:21.756Z,18.73
2022-07-31T00:46:48.621Z,18.57
2022-07-31T00:49:16.001Z,18.60
2022-07-31T00:51:42.738Z,18.53
2022-07-31T00:54:10.469Z,18.44
2022-07-31T00:56:45.243Z,18.42
2022-07-31T00:59:12.661Z,18.35
2022-07-31T01:01:39.417Z,18.35
2022-07-31T01:04:06.092Z,18.26
2022-07-31T01:06:33.156Z,18.14
2022-07-31T01:09:01.551Z,18.00
2022-07-31T01:11:42.041Z,17.97
2022-07-31T01:14:10.118Z,17.82
2022-07-31T01:16:51.645Z,17.88
2022-07-31T01:19:39.767Z,17.89
2022-07-31T01:22:33.401Z,18.02
2022-07-31T01:25:10.418Z,17.90
2022-07-31T01:27:49.465Z,17.94
2022-07-31T01:30:17.630Z,18.10
2022-07-31T01:32:51.824Z,18.27
2022-07-31T01:35:25.645Z,18.21
2022-07-31T01:37:52.212Z,18.28
2022-07-31T01:40:36.861Z,18.16
2022-07-31T01:43:11.752Z,18.03
2022-07-31T01:45:42.794Z,18.08
2022-07-31T01:48:14.349Z,17.98
2022-07-31T01:50:44.411Z,17.87
2022-07-31T01:53:15.227Z,17.67
2022-07-31T01:56:02.302Z,17.50
2022-07-31T01:58:35.047Z,17.48
2022-07-31T02:01:03.650Z,17.31
2022-07-31T02:03:44.277Z,17.24
2022-07-31T02:06:18.134Z,17.24
2022-07-31T02:08:50.444Z,17.17
2022-07-31T02:11:19.175Z,16.98
2022-07-31T02:13:47.616Z,16.93
2022-07-31T02:16:16.433Z,16.97
2022-07-31T02:18:43.464Z,17.01
2022-07-31T02:21:10.542Z,17.04
2022-07-31T02:23:38.305Z,16.97
2022-07-31T02:26:07.176Z,16.78
2022-07-31T02:28:38.061Z,16.81
2022-07-31T02:31:10.279Z,16.83
2022-07-31T02:33:37.443Z,16.78
2022-07-31T02:36:06.152Z,16.87
2022-07-31T02:38:34.035Z,16.84
2022-07-31T02:41:04.799Z,16.74
2022-07-31T02:43:33.301Z,16.64
2022-07-31T02:46:00.674Z,16.60
2022-07-31T02:48:28.213Z,16.52
2022-07-31T02:50:55.721Z,16.56
2022-07-31T02:53:22.431Z,16.58
2022-07-31T02:55:50.597Z,16.59
2022-07-31T02:58:17.312Z,16.54
2022-07-31T03:00:44.128Z,16.46
2022-07-31T03:03:10.829Z,16.46
2022-07-31T03:05:37.459Z,16.41
2022-07-31T03:08:04.519Z,16.34
2022-07-31T03:10:31.161Z,16.31
2022-07-31T03:12:58.686Z,16.26
2022-07-31T03:15:27.104Z,16.21
2022-07-31T03:17:55.113Z,16.15
2022-07-31T03:20:23.537Z,16.00
2022-07-31T03:22:51.368Z,16.00
2022-07-31T03:25:21.512Z,15.97
2022-07-31T03:27:52.451Z,16.02
2022-07-31T03:30:26.870Z,15.89
2022-07-31T03:32:54.349Z,15.89
2022-07-31T03:35:21.246Z,15.77
2022-07-31T03:37:47.854Z,15.88
2022-07-31T03:40:14.609Z,15.97
2022-07-31T03:42:42.504Z,15.96
2022-07-31T03:45:10.898Z,16.04
2022-07-31T03:47:38.089Z,16.00
2022-07-31T03:50:05.605Z,16.12
2022-07-31T03:52:32.459Z,16.15
2022-07-31T03:54:59.486Z,16.16
2022-07-31T03:57:31.125Z,16.18
2022-07-31T04:00:00.285Z,16.14
2022-07-31T04:02:28.317Z,16.11
2022-07-31T04:04:55.624Z,16.18
2022-07-31T04:07:22.256Z,16.25
2022-07-31T04:09:49.150Z,16.39
2022-07-31T04:12:16.299Z,16.42
2022-07-31T04:14:43.252Z,16.55
2022-07-31T04:17:09.991Z,16.68
2022-07-31T04:19:36.788Z,16.81
2022-07-31T04:22:04.409Z,16.83
2022-07-31T04:24:31.435Z,16.79
2022-07-31T04:26:58.719Z,17.16
2022-07-31T04:29:28.685Z,17.27
2022-07-31T04:31:55.924Z,17.39
2022-07-31T04:34:22.557Z,17.55
2022-07-31T04:36:49.204Z,17.62
2022-07-31T04:39:15.802Z,17.73
2022-07-31T04:41:42.865Z,17.70
2022-07-31T04:44:10.326Z,17.58
2022-07-31T04:46:37.467Z,17.53
2022-07-31T04:49:04.427Z,17.60
2022-07-31T04:51:31.181Z,17.66
2022-07-31T04:53:57.857Z,17.56
2022-07-31T04:56:33.472Z,17.62
2022-07-31T04:59:11.601Z,17.77
2022-07-31T05:01:39.605Z,17.88
2022-07-31T05:04:07.224Z,17.94
2022-07-31T05:06:38.701Z,18.02
2022-07-31T05:09:09.423Z,18.10
2022-07-31T05:11:37.815Z,18.19
2022-07-31T05:14:06.745Z,18.36
2022-07-31T05:16:35.036Z,18.52
2022-07-31T05:19:02.586Z,18.69
2022-07-31T05:21:30.620Z,18.95
2022-07-31T05:23:59.027Z,19.37
2022-07-31T05:26:27.018Z,19.55
2022-07-31T05:28:58.471Z,19.37
2022-07-31T05:31:26.444Z,19.31
2022-07-31T05:33:53.307Z,19.17
2022-07-31T05:36:20.819Z,18.99
2022-07-31T05:38:47.777Z,18.97
2022-07-31T05:41:14.797Z,19.12
2022-07-31T05:43:41.431Z,19.01
2022-07-31T05:46:08.290Z,18.92
2022-07-31T05:48:35.063Z,19.17
2022-07-31T05:51:05.366Z,19.32
2022-07-31T05:53:32.272Z,19.72
2022-07-31T05:55:58.899Z,20.17
2022-07-31T05:58:25.539Z,20.67
2022-07-31T06:00:52.128Z,21.22
2022-07-31T06:03:24.053Z,21.48
2022-07-31T06:05:51.965Z,21.12
2022-07-31T06:08:18.596Z,20.76
2022-07-31T06:10:45.297Z,20.52
2022-07-31T06:13:13.454Z,20.21
2022-07-31T06:15:45.375Z,20.62
2022-07-31T06:18:16.313Z,21.30
2022-07-31T06:20:43.126Z,21.41
2022-07-31T06:23:22.561Z,21.67
2022-07-31T06:25:49.814Z,21.30
2022-07-31T06:28:16.738Z,21.20
2022-07-31T06:30:44.186Z,20.77
2022-07-31T06:33:16.674Z,20.40
2022-07-31T06:35:57.912Z,20.62
2022-07-31T06:38:24.548Z,21.06
2022-07-31T06:40:51.588Z,20.55
2022-07-31T06:43:18.643Z,20.46
2022-07-31T06:45:52.019Z,20.39
2022-07-31T06:48:19.295Z,20.29
2022-07-31T06:50:46.056Z,20.40
2022-07-31T06:53:12.678Z,20.80
2022-07-31T06:55:44.421Z,20.90
2022-07-31T06:58:11.604Z,20.47
2022-07-31T07:00:38.536Z,20.77
2022-07-31T07:03:05.168Z,20.94
2022-07-31T07:05:31.822Z,21.33
2022-07-31T07:07:58.430Z,21.85
2022-07-31T07:10:25.143Z,21.80
2022-07-31T07:12:51.835Z,21.92
2022-07-31T07:15:20.679Z,22.08
2022-07-31T07:17:47.273Z,22.60
2022-07-31T07:20:13.933Z,22.63
2022-07-31T07:22:40.564Z,22.24
2022-07-31T07:25:07.608Z,21.98
2022-07-31T07:27:34.288Z,22.06
2022-07-31T07:30:01.045Z,21.81
2022-07-31T07:32:27.716Z,21.69
2022-07-31T07:34:59.416Z,21.69
2022-07-31T07:37:27.714Z,21.44
2022-07-31T07:39:54.438Z,21.39
2022-07-31T07:42:21.367Z,21.46
2022-07-31T07:44:47.965Z,21.41
2022-07-31T07:47:14.560Z,21.74
2022-07-31T07:49:41.427Z,21.96
2022-07-31T07:52:08.064Z,21.83
2022-07-31T07:54:34.705Z,21.55
2022-07-31T07:57:01.327Z,21.51
2022-07-31T07:59:27.981Z,21.71
2022-07-31T08:01:54.608Z,21.78
2022-07-31T08:04:21.310Z,21.96
2022-07-31T08:06:47.986Z,22.24
2022-07-31T08:09:14.754Z,22.17
2022-07-31T08:11:41.501Z,21.88
2022-07-31T08:14:08.185Z,21.71
2022-07-31T08:16:35.013Z,21.92
2022-07-31T08:19:01.785Z,21.96
2022-07-31T08:21:28.543Z,21.82
2022-07-31T08:23:55.332Z,21.61
2022-07-31T08:26:22.585Z,21.72
2022-07-31T08:28:54.217Z,22.05
2022-07-31T08:31:22.758Z,22.00
2022-07-31T08:33:49.566Z,22.04
2022-07-31T08:36:16.812Z,22.35
2022-07-31T08:38:43.655Z,22.73
2022-07-31T08:41:13.075Z,22.63
2022-07-31T08:44:00.411Z,22.73
2022-07-31T08:46:27.565Z,23.15
2022-07-31T08:48:57.349Z,23.33
2022-07-31T08:51:24.757Z,23.50
2022-07-31T08:53:53.126Z,23.15
2022-07-31T08:56:21.339Z,22.85
2022-07-31T08:58:48.254Z,22.57
2022-07-31T09:03:42.744Z,22.37
2022-07-31T09:06:09.752Z,22.81
2022-07-31T09:08:37.522Z,23.08
2022-07-31T09:11:13.482Z,23.06
2022-07-31T09:13:41.516Z,23.20
2022-07-31T09:16:08.294Z,23.39
2022-07-31T09:18:35.411Z,23.25
2022-07-31T09:21:06.059Z,23.28
2022-07-31T09:23:33.625Z,22.92
2022-07-31T09:26:07.775Z,22.53
2022-07-31T09:28:36.712Z,22.46
2022-07-31T09:31:05.943Z,22.57
2022-07-31T09:33:33.105Z,23.26
2022-07-31T09:36:00.561Z,23.78
2022-07-31T09:38:33.649Z,23.30
2022-07-31T09:41:56.332Z,22.94
2022-07-31T09:44:10.136Z,22.51
2022-07-31T09:46:46.140Z,22.49
2022-07-31T09:49:13.737Z,23.05
2022-07-31T09:51:46.214Z,23.24
2022-07-31T09:54:23.357Z,23.34
2022-07-31T09:56:50.481Z,22.86
2022-07-31T09:59:17.511Z,22.94
2022-07-31T10:01:48.873Z,23.07
2022-07-31T10:04:22.407Z,22.78
2022-07-31T10:06:51.463Z,22.66
2022-07-31T10:09:20.305Z,22.60
2022-07-31T10:11:49.804Z,22.85
2022-07-31T10:14:24.411Z,23.14
2022-07-31T10:16:56.735Z,23.08
2022-07-31T10:19:24.107Z,23.28
2022-07-31T10:21:56.618Z,23.19
2022-07-31T10:24:28.367Z,23.22
2022-07-31T10:27:01.561Z,23.37
2022-07-31T10:29:32.726Z,23.40
2022-07-31T10:32:00.195Z,23.52
2022-07-31T10:34:27.587Z,23.58
2022-07-31T10:36:59.353Z,23.67
2022-07-31T10:39:31.621Z,23.67
2022-07-31T10:42:32.585Z,23.98
2022-07-31T10:45:08.865Z,24.10
2022-07-31T10:47:36.137Z,23.89
2022-07-31T10:50:07.341Z,23.81
2022-07-31T10:52:38.400Z,23.69
2022-07-31T10:55:22.704Z,23.86
2022-07-31T10:57:56.539Z,24.35
2022-07-31T11:00:28.472Z,24.09
2022-07-31T11:02:56.778Z,24.43
2022-07-31T11:05:24.809Z,24.53
2022-07-31T11:08:06.503Z,24.32
2022-07-31T11:10:34.704Z,24.53
2022-07-31T11:13:06.126Z,24.33
2022-07-31T11:15:33.809Z,24.06
2022-07-31T11:18:21.969Z,24.19
2022-07-31T11:21:13.714Z,24.27
2022-07-31T11:23:55.920Z,24.79
2022-07-31T11:26:33.727Z,24.83
2022-07-31T11:30:00.317Z,24.82
2022-07-31T11:32:25.063Z,24.66
2022-07-31T11:34:57.239Z,24.76
2022-07-31T11:37:26.603Z,24.90
2022-07-31T11:40:02.072Z,24.51
2022-07-31T11:42:33.213Z,24.25
2022-07-31T11:45:11.321Z,24.78
2022-07-31T11:48:11.996Z,24.93
2022-07-31T11:50:44.626Z,25.12
2022-07-31T11:53:12.491Z,24.88
2022-07-31T11:55:54.605Z,24.79
2022-07-31T11:58:23.850Z,24.73
2022-07-31T12:00:55.575Z,24.61
2022-07-31T12:03:23.876Z,24.85
2022-07-31T12:05:52.817Z,25.04
2022-07-31T12:08:24.431Z,25.12
2022-07-31T12:10:56.635Z,25.22
2022-07-31T12:13:25.127Z,25.64
2022-07-31T12:15:57.863Z,25.63
2022-07-31T12:18:26.376Z,25.23
2022-07-31T12:21:00.160Z,25.40
2022-07-31T12:23:41.508Z,25.48
2022-07-31T12:26:13.163Z,25.85
2022-07-31T12:28:40.930Z,25.39
2022-07-31T12:31:07.800Z,25.00
2022-07-31T12:33:42.896Z,25.21
2022-07-31T12:36:16.650Z,25.45
2022-07-31T12:38:47.851Z,25.39
2022-07-31T12:41:15.794Z,25.35
2022-07-31T12:43:51.374Z,25.42
2022-07-31T12:46:36.045Z,25.57
2022-07-31T12:49:04.406Z,25.54
2022-07-31T12:51:45.439Z,25.69
2022-07-31T12:54:17.280Z,25.63
2022-07-31T12:56:45.106Z,25.93
2022-07-31T12:59:12.772Z,25.88
2022-07-31T13:01:39.879Z,26.03
2022-07-31T13:04:07.617Z,25.98
2022-07-31T13:06:35.362Z,26.14
2022-07-31T13:09:02.193Z,25.99
2022-07-31T13:11:46.297Z,26.10
2022-07-31T13:14:18.809Z,26.31
2022-07-31T13:16:46.935Z,26.44
2022-07-31T13:19:14.512Z,26.33
2022-07-31T13:21:48.128Z,26.23
2022-07-31T13:24:17.469Z,25.93
2022-07-31T13:26:45.644Z,26.19
2022-07-31T13:29:12.979Z,26.17
2022-07-31T13:31:40.436Z,26.44
2022-07-31T13:34:07.307Z,26.31
2022-07-31T13:36:39.296Z,26.25
2022-07-31T13:39:08.094Z,26.27
2022-07-31T13:41:35.879Z,26.00
2022-07-31T13:44:03.870Z,25.63
2022-07-31T13:46:31.656Z,25.84
2022-07-31T13:49:00.272Z,25.79
2022-07-31T13:51:29.360Z,25.79
2022-07-31T13:53:56.467Z,25.86
2022-07-31T13:56:39.069Z,25.90
2022-07-31T13:59:13.695Z,25.95
2022-07-31T14:02:13.503Z,26.38
2022-07-31T14:04:32.316Z,26.61
2022-07-31T14:07:04.130Z,26.48
2022-07-31T14:09:31.518Z,26.54
2022-07-31T14:11:58.354Z,26.15
2022-07-31T14:14:25.420Z,26.13
2022-07-31T14:16:52.224Z,26.40
2022-07-31T14:19:19.084Z,26.20
2022-07-31T14:21:50.209Z,25.69
2022-07-31T14:24:23.492Z,25.56
2022-07-31T14:26:50.329Z,25.61
2022-07-31T14:29:17.250Z,25.61
2022-07-31T14:31:44.071Z,25.89
2022-07-31T14:34:10.995Z,25.90
2022-07-31T14:36:37.814Z,25.99
2022-07-31T14:39:04.663Z,26.31
2022-07-31T14:41:31.524Z,26.44
2022-07-31T14:43:58.398Z,26.23
2022-07-31T14:46:25.215Z,26.18
2022-07-31T14:48:52.365Z,26.15
2022-07-31T14:51:19.773Z,26.40
2022-07-31T14:53:47.330Z,26.45
2022-07-31T14:56:16.686Z,26.30
2022-07-31T14:58:57.523Z,26.22
2022-07-31T15:01:26.925Z,25.82
2022-07-31T15:03:58.166Z,25.84
2022-07-31T15:06:41.288Z,25.97
2022-07-31T15:09:12.708Z,26.02
2022-07-31T15:12:00.122Z,25.95
2022-07-31T15:14:28.926Z,25.86
2022-07-31T15:16:55.758Z,25.92
2022-07-31T15:19:22.592Z,26.06
2022-07-31T15:22:10.210Z,26.30
2022-07-31T15:24:36.382Z,25.96
2022-07-31T15:27:03.646Z,25.90
2022-07-31T15:30:05.821Z,25.84
2022-07-31T15:32:17.627Z,25.94
2022-07-31T15:34:44.529Z,26.01
2022-07-31T15:37:11.454Z,25.91
2022-07-31T15:40:02.128Z,25.78
2022-07-31T15:42:34.815Z,25.53
2022-07-31T15:45:01.730Z,25.36
2022-07-31T15:47:28.587Z,25.58
2022-07-31T15:49:55.467Z,25.63
2022-07-31T15:52:22.461Z,25.49
2022-07-31T15:54:52.061Z,25.57
2022-07-31T15:57:22.928Z,25.40
2022-07-31T15:59:50.735Z,25.34
2022-07-31T16:02:17.702Z,25.22
2022-07-31T16:04:51.959Z,25.18
2022-07-31T16:08:28.877Z,25.15
2022-07-31T16:10:15.508Z,25.38
2022-07-31T16:12:47.811Z,25.46
2022-07-31T16:15:16.342Z,25.30
2022-07-31T16:17:44.241Z,25.26
2022-07-31T16:20:25.485Z,25.06
2022-07-31T16:22:56.693Z,25.09
2022-07-31T16:25:24.615Z,25.07
2022-07-31T16:27:51.574Z,25.27
2022-07-31T16:30:18.387Z,25.13
2022-07-31T16:32:45.325Z,25.10
2022-07-31T16:35:12.946Z,25.10
2022-07-31T16:37:50.091Z,24.96
2022-07-31T16:40:30.223Z,25.02
2022-07-31T16:43:48.554Z,24.75
2022-07-31T16:45:50.909Z,24.52
2022-07-31T16:48:18.366Z,24.46
2022-07-31T16:50:48.208Z,24.42
2022-07-31T16:54:11.576Z,24.34
2022-07-31T16:56:08.414Z,24.28
2022-07-31T16:58:37.017Z,24.25
2022-07-31T17:01:04.374Z,24.17
2022-07-31T17:04:01.367Z,24.12
2022-07-31T17:06:18.625Z,24.03
2022-07-31T17:09:16.930Z,24.02
2022-07-31T17:11:55.588Z,23.97
2022-07-31T17:14:26.616Z,23.96
2022-07-31T17:16:54.630Z,23.88
2022-07-31T17:19:36.014Z,23.86
2022-07-31T17:22:11.155Z,23.72
2022-07-31T17:24:38.786Z,23.67
2022-07-31T17:27:09.816Z,23.46
2022-07-31T17:29:38.322Z,23.26
2022-07-31T17:32:05.870Z,23.20
2022-07-31T17:34:32.796Z,23.10
2022-07-31T17:36:59.743Z,22.99
2022-07-31T17:39:30.579Z,23.04
2022-07-31T17:41:58.480Z,22.93
2022-07-31T17:44:25.686Z,22.80
2022-07-31T17:46:52.614Z,22.73
2022-07-31T17:49:20.750Z,22.83
2022-07-31T17:52:08.246Z,22.73
2022-07-31T17:54:37.307Z,22.56
2022-07-31T17:57:04.923Z,22.42
2022-07-31T17:59:31.835Z,22.39
2022-07-31T18:02:03.912Z,22.30
2022-07-31T18:04:33.962Z,22.23
2022-07-31T18:07:01.986Z,22.20
2022-07-31T18:09:28.871Z,22.14
2022-07-31T18:11:56.499Z,22.07
2022-07-31T18:14:24.653Z,21.93
2022-07-31T18:16:51.910Z,21.82
2022-07-31T18:19:18.901Z,21.59
2022-07-31T18:21:45.783Z,21.64
2022-07-31T18:24:12.627Z,21.70
2022-07-31T18:26:39.528Z,21.61
2022-07-31T18:29:06.431Z,21.54
2022-07-31T18:31:35.166Z,21.51
2022-07-31T18:34:06.990Z,21.50
2022-07-31T18:36:35.211Z,21.37
2022-07-31T18:39:03.825Z,21.30
2022-07-31T18:41:30.922Z,21.18
2022-07-31T18:43:58.556Z,21.20
2022-07-31T18:46:25.807Z,21.16
2022-07-31T18:48:56.794Z,21.05
2022-07-31T18:51:28.346Z,20.97
2022-07-31T18:53:55.791Z,20.91
2022-07-31T18:56:28.536Z,20.92
2022-07-31T18:58:55.747Z,20.87
2022-07-31T19:01:25.640Z,20.88
2022-07-31T19:03:55.674Z,20.95
2022-07-31T19:06:25.555Z,20.78
2022-07-31T19:08:52.969Z,20.63
2022-07-31T19:11:20.758Z,20.62
2022-07-31T19:13:47.888Z,20.69
2022-07-31T19:16:15.944Z,20.57
2022-07-31T19:18:45.115Z,20.54
2022-07-31T19:21:23.580Z,20.46
2022-07-31T19:23:58.910Z,20.42
2022-07-31T19:26:25.754Z,20.32
2022-07-31T19:28:52.666Z,20.25
2022-07-31T19:31:19.973Z,20.11
2022-07-31T19:33:47.118Z,20.01
2022-07-31T19:36:15.600Z,19.90
2022-07-31T19:38:44.587Z,19.78
2022-07-31T19:41:12.741Z,19.72
2022-07-31T19:43:39.581Z,19.72
2022-07-31T19:46:11.551Z,19.63
2022-07-31T19:48:44.583Z,19.68
2022-07-31T19:51:13.847Z,19.74
2022-07-31T19:53:40.735Z,19.76
2022-07-31T19:56:08.149Z,19.77
2022-07-31T19:58:36.454Z,19.81
2022-07-31T20:01:07.954Z,19.78
2022-07-31T20:03:38.557Z,19.77
2022-07-31T20:06:05.535Z,19.80
2022-07-31T20:08:33.298Z,19.79
2022-07-31T20:11:04.204Z,19.78
2022-07-31T20:13:35.032Z,19.80
2022-07-31T20:16:02.247Z,19.83
2022-07-31T20:18:30.023Z,19.75
2022-07-31T20:21:01.759Z,19.74
2022-07-31T20:23:29.116Z,19.64
2022-07-31T20:25:56.171Z,19.62
2022-07-31T20:28:23.399Z,19.66
2022-07-31T20:30:50.462Z,19.71
2022-07-31T20:33:17.660Z,19.72
2022-07-31T20:35:49.121Z,19.66
2022-07-31T20:38:23.015Z,19.64
2022-07-31T20:40:53.432Z,19.64
2022-07-31T20:43:22.503Z,19.60
2022-07-31T20:45:49.381Z,19.44
2022-07-31T20:48:18.168Z,19.35
2022-07-31T20:50:48.064Z,19.22
2022-07-31T20:53:15.972Z,19.17
2022-07-31T20:55:47.212Z,19.05
2022-07-31T20:58:14.493Z,19.08
2022-07-31T21:00:42.262Z,19.01
2022-07-31T21:03:09.274Z,18.97
2022-07-31T21:05:36.125Z,18.93
2022-07-31T21:08:03.141Z,18.87
2022-07-31T21:10:30.189Z,18.90
2022-07-31T21:12:57.648Z,18.94
2022-07-31T21:15:42.579Z,18.95
2022-07-31T21:18:21.569Z,19.00
2022-07-31T21:20:53.522Z,19.06
2022-07-31T21:23:22.809Z,19.02
2022-07-31T21:25:50.735Z,18.97
2022-07-31T21:28:17.985Z,19.05
2022-07-31T21:30:45.097Z,18.98
2022-07-31T21:33:12.021Z,18.90
2022-07-31T21:35:40.284Z,18.95
2022-07-31T21:38:11.929Z,18.96
2022-07-31T21:40:40.406Z,18.94
2022-07-31T21:43:08.450Z,18.91
2022-07-31T21:45:49.704Z,18.83
2022-07-31T21:48:23.699Z,18.70
2022-07-31T21:50:50.759Z,18.61
2022-07-31T21:53:17.483Z,18.51
2022-07-31T21:55:44.438Z,18.52
2022-07-31T21:58:11.576Z,18.54
2022-07-31T22:00:38.520Z,18.50
2022-07-31T22:03:05.852Z,18.44
2022-07-31T22:05:51.476Z,18.42
2022-07-31T22:08:18.772Z,18.45
2022-07-31T22:10:45.720Z,18.46
2022-07-31T22:13:12.542Z,18.43
2022-07-31T22:15:51.406Z,18.49
2022-07-31T22:18:27.918Z,18.36
2022-07-31T22:20:54.623Z,18.23
2022-07-31T22:23:22.987Z,18.29
2022-07-31T22:25:49.770Z,18.24
2022-07-31T22:28:20.870Z,18.17
2022-07-31T22:30:47.998Z,18.09
2022-07-31T22:33:14.786Z,17.98
2022-07-31T22:35:41.772Z,17.92
2022-07-31T22:38:09.287Z,17.89
2022-07-31T22:40:36.150Z,17.72
2022-07-31T22:43:03.692Z,17.68
2022-07-31T22:45:30.485Z,17.70
2022-07-31T22:47:58.093Z,17.78
2022-07-31T22:50:25.264Z,17.86
2022-07-31T22:52:52.716Z,17.97
2022-07-31T22:55:19.489Z,18.06
2022-07-31T22:57:46.344Z,18.13
2022-07-31T23:00:15.475Z,18.18
2022-07-31T23:02:42.992Z,18.03
2022-07-31T23:05:10.124Z,18.26
2022-07-31T23:07:37.095Z,18.27
2022-07-31T23:10:06.213Z,18.33
2022-07-31T23:12:33.013Z,18.25
2022-07-31T23:14:59.851Z,18.24
2022-07-31T23:17:26.444Z,18.18
2022-07-31T23:19:53.930Z,18.07
2022-07-31T23:22:20.955Z,18.02
2022-07-31T23:25:00.505Z,17.95
2022-07-31T23:27:27.156Z,17.91
2022-07-31T23:29:53.834Z,17.91
2022-07-31T23:32:21.857Z,17.91
2022-07-31T23:34:48.467Z,17.82
2022-07-31T23:37:15.267Z,17.79
2022-07-31T23:39:41.909Z,17.78
2022-07-31T23:42:27.643Z,17.79
2022-07-31T23:44:54.352Z,17.77
2022-07-31T23:47:23.999Z,17.74
2022-07-31T23:50:07.662Z,17.74
2022-07-31T23:52:34.306Z,17.67
2022-07-31T23:55:00.881Z,17.58
2022-07-31T23:57:27.553Z,17.74
